createdAt,value
2018-09-30T00:01:08.575Z,62.40
2018-09-30T00:03:36.209Z,62.40
2018-09-30T00:06:03.815Z,62.30
2018-09-30T00:08:31.371Z,62.60
2018-09-30T00:10:59.017Z,62.70
2018-09-30T00:13:26.561Z,62.70
2018-09-30T00:15:54.287Z,62.80
2018-09-30T00:18:21.957Z,62.80
2018-09-30T00:20:49.532Z,62.80
2018-09-30T00:23:17.186Z,62.90
2018-09-30T00:25:50.355Z,63.10
2018-09-30T00:28:17.952Z,63.10
2018-09-30T00:30:45.708Z,63.40
2018-09-30T00:33:13.291Z,63.30
2018-09-30T00:35:40.931Z,63.30
2018-09-30T00:38:08.442Z,63.40
2018-09-30T00:40:36.095Z,63.60
2018-09-30T00:43:03.771Z,63.80
2018-09-30T00:45:31.390Z,63.80
2018-09-30T00:47:59.072Z,63.90
2018-09-30T00:50:26.675Z,64.00
2018-09-30T00:52:54.383Z,64.00
2018-09-30T00:55:22.229Z,63.90
2018-09-30T00:57:49.871Z,64.00
2018-09-30T01:00:17.454Z,64.00
2018-09-30T01:02:45.014Z,64.10
2018-09-30T01:05:12.618Z,64.10
2018-09-30T01:07:40.231Z,64.30
2018-09-30T01:10:21.947Z,64.30
2018-09-30T01:12:52.444Z,64.30
2018-09-30T01:15:20.401Z,64.40
2018-09-30T01:17:49.483Z,64.50
2018-09-30T01:20:18.917Z,64.60
2018-09-30T01:22:48.305Z,64.60
2018-09-30T01:25:15.921Z,64.60
2018-09-30T01:27:43.679Z,64.80
2018-09-30T01:30:13.726Z,64.90
2018-09-30T01:32:50.361Z,64.90
2018-09-30T01:35:22.264Z,65.00
2018-09-30T01:37:50.740Z,64.90
2018-09-30T01:40:18.428Z,64.40
2018-09-30T01:42:46.084Z,65.40
2018-09-30T01:45:13.824Z,65.20
2018-09-30T01:47:41.405Z,65.40
2018-09-30T01:50:09.064Z,65.40
2018-09-30T01:52:57.628Z,65.30
2018-09-30T01:55:25.382Z,65.40
2018-09-30T01:57:53.779Z,65.20
2018-09-30T02:00:21.421Z,65.30
2018-09-30T02:02:49.173Z,65.30
2018-09-30T02:05:17.216Z,65.40
2018-09-30T02:07:45.792Z,65.40
2018-09-30T02:10:14.427Z,65.40
2018-09-30T02:12:42.023Z,65.50
2018-09-30T02:15:10.984Z,65.50
2018-09-30T02:17:39.907Z,65.70
2018-09-30T02:20:07.948Z,65.80
2018-09-30T02:22:42.200Z,66.10
2018-09-30T02:25:11.669Z,66.10
2018-09-30T02:27:47.673Z,65.90
2018-09-30T02:30:18.206Z,65.90
2018-09-30T02:32:54.123Z,66.10
2018-09-30T02:35:37.309Z,66.20
2018-09-30T02:38:11.818Z,66.10
2018-09-30T02:40:44.850Z,66.10
2018-09-30T02:46:10.529Z,66.10
2018-09-30T02:48:38.129Z,65.90
2018-09-30T02:51:05.987Z,66.30
2018-09-30T02:53:33.963Z,66.10
2018-09-30T02:56:01.593Z,66.10
2018-09-30T02:58:29.234Z,66.10
2018-09-30T03:00:56.986Z,66.10
2018-09-30T03:03:28.288Z,65.90
2018-09-30T03:05:56.040Z,65.80
2018-09-30T03:08:29.151Z,65.90
2018-09-30T03:10:56.803Z,66.10
2018-09-30T03:13:24.462Z,65.70
2018-09-30T03:15:53.094Z,65.70
2018-09-30T03:18:20.739Z,65.60
2018-09-30T03:20:49.410Z,65.80
2018-09-30T03:23:17.226Z,65.90
2018-09-30T03:25:44.826Z,65.90
2018-09-30T03:28:12.434Z,65.50
2018-09-30T03:30:39.994Z,65.40
2018-09-30T03:33:07.511Z,65.70
2018-09-30T03:35:35.370Z,65.50
2018-09-30T03:38:02.977Z,65.40
2018-09-30T03:40:30.530Z,65.30
2018-09-30T03:42:58.175Z,65.70
2018-09-30T03:45:25.711Z,65.60
2018-09-30T03:47:53.227Z,65.80
2018-09-30T03:50:20.807Z,65.80
2018-09-30T03:52:48.359Z,65.60
2018-09-30T03:55:16.015Z,65.70
2018-09-30T03:57:43.606Z,65.80
2018-09-30T04:00:11.392Z,65.60
2018-09-30T04:02:38.987Z,65.80
2018-09-30T04:05:06.648Z,65.70
2018-09-30T04:07:34.218Z,65.70
2018-09-30T04:10:01.868Z,65.60
2018-09-30T04:12:29.637Z,65.70
2018-09-30T04:14:57.218Z,66.00
2018-09-30T04:17:24.950Z,65.80
2018-09-30T04:19:52.354Z,65.80
2018-09-30T04:22:19.963Z,65.70
2018-09-30T04:24:47.615Z,65.50
2018-09-30T04:27:15.203Z,65.40
2018-09-30T04:29:42.764Z,65.70
2018-09-30T04:32:10.298Z,65.70
2018-09-30T04:34:37.801Z,65.70
2018-09-30T04:37:07.478Z,65.80
2018-09-30T04:39:35.067Z,65.50
2018-09-30T04:42:02.624Z,65.60
2018-09-30T04:44:30.816Z,65.60
2018-09-30T04:46:58.428Z,66.10
2018-09-30T04:49:25.932Z,66.10
2018-09-30T04:51:53.502Z,66.10
2018-09-30T04:54:21.015Z,66.30
2018-09-30T04:56:48.686Z,66.00
2018-09-30T04:59:16.683Z,65.80
2018-09-30T05:01:44.426Z,65.70
2018-09-30T05:04:12.094Z,65.70
2018-09-30T05:06:39.760Z,65.60
2018-09-30T05:09:08.841Z,65.70
2018-09-30T05:11:36.435Z,66.20
2018-09-30T05:14:03.907Z,65.90
2018-09-30T05:16:31.559Z,66.20
2018-09-30T05:18:59.031Z,66.20
2018-09-30T05:21:26.583Z,66.00
2018-09-30T05:23:54.174Z,66.00
2018-09-30T05:26:21.844Z,66.30
2018-09-30T05:28:49.415Z,66.40
2018-09-30T05:31:17.049Z,66.20
2018-09-30T05:33:44.548Z,66.40
2018-09-30T05:36:12.267Z,66.60
2018-09-30T05:38:39.927Z,66.80
2018-09-30T05:41:07.562Z,66.90
2018-09-30T05:43:35.616Z,67.00
2018-09-30T05:46:03.157Z,66.60
2018-09-30T05:48:30.762Z,66.60
2018-09-30T05:50:58.338Z,66.40
2018-09-30T05:53:25.899Z,66.40
2018-09-30T05:55:54.314Z,66.20
2018-09-30T05:58:22.065Z,66.40
2018-09-30T06:00:49.663Z,66.50
2018-09-30T06:03:17.135Z,66.20
2018-09-30T06:05:44.740Z,66.60
2018-09-30T06:08:12.821Z,66.70
2018-09-30T06:10:40.612Z,66.60
2018-09-30T06:13:08.192Z,66.50
2018-09-30T06:15:35.799Z,66.40
2018-09-30T06:18:03.488Z,66.30
2018-09-30T06:20:31.059Z,66.50
2018-09-30T06:22:58.643Z,66.80
2018-09-30T06:25:31.820Z,66.10
2018-09-30T06:30:41.851Z,66.10
2018-09-30T06:33:11.415Z,66.10
2018-09-30T06:35:59.939Z,66.30
2018-09-30T06:38:28.408Z,66.30
2018-09-30T06:40:59.889Z,67.00
2018-09-30T06:43:34.874Z,66.40
2018-09-30T06:46:12.868Z,66.10
2018-09-30T06:48:53.508Z,66.30
2018-09-30T06:51:26.629Z,66.20
2018-09-30T06:53:56.821Z,66.20
2018-09-30T06:56:34.925Z,66.00
2018-09-30T06:59:07.777Z,66.10
2018-09-30T07:01:45.195Z,66.00
2018-09-30T07:06:54.632Z,65.70
2018-09-30T07:09:24.583Z,65.40
2018-09-30T07:11:58.258Z,65.60
2018-09-30T07:14:27.141Z,65.30
2018-09-30T07:16:56.486Z,65.40
2018-09-30T07:19:24.830Z,65.50
2018-09-30T07:21:53.029Z,65.50
2018-09-30T07:24:24.422Z,65.50
2018-09-30T07:26:53.581Z,65.40
2018-09-30T07:29:23.216Z,65.60
2018-09-30T07:31:51.535Z,65.00
2018-09-30T07:34:21.438Z,65.10
2018-09-30T07:36:50.763Z,65.10
2018-09-30T07:39:21.822Z,64.60
2018-09-30T07:41:55.074Z,64.70
2018-09-30T07:44:23.630Z,65.40
2018-09-30T07:46:57.821Z,64.50
2018-09-30T07:49:26.247Z,64.10
2018-09-30T07:51:56.511Z,63.80
2018-09-30T07:57:10.447Z,64.00
2018-09-30T07:59:39.524Z,64.40
2018-09-30T08:02:09.505Z,63.90
2018-09-30T08:04:37.933Z,63.60
2018-09-30T08:07:06.490Z,63.60
2018-09-30T08:09:38.014Z,63.00
2018-09-30T08:12:08.103Z,62.30
2018-09-30T08:14:36.951Z,62.20
2018-09-30T08:17:09.795Z,62.10
2018-09-30T08:19:38.696Z,62.20
2018-09-30T08:22:08.222Z,60.90
2018-09-30T08:24:36.671Z,60.60
2018-09-30T08:27:08.482Z,60.70
2018-09-30T08:29:37.612Z,60.60
2018-09-30T08:32:05.831Z,61.10
2018-09-30T08:34:35.025Z,61.00
2018-09-30T08:37:03.147Z,60.70
2018-09-30T08:39:32.016Z,60.00
2018-09-30T08:42:01.363Z,59.50
2018-09-30T08:44:32.342Z,59.40
2018-09-30T08:47:03.059Z,59.50
2018-09-30T08:49:31.536Z,59.40
2018-09-30T08:51:59.760Z,59.40
2018-09-30T08:54:28.217Z,59.00
2018-09-30T08:56:57.715Z,58.40
2018-09-30T08:59:25.823Z,58.30
2018-09-30T09:02:02.477Z,58.30
2018-09-30T09:04:30.506Z,58.20
2018-09-30T09:07:00.729Z,57.80
2018-09-30T09:09:30.817Z,57.30
2018-09-30T09:12:00.677Z,56.60
2018-09-30T09:14:43.551Z,56.00
2018-09-30T09:17:38.139Z,55.00
2018-09-30T09:20:19.719Z,55.00
2018-09-30T09:22:50.977Z,55.20
2018-09-30T09:25:32.849Z,54.20
2018-09-30T09:28:01.991Z,54.20
2018-09-30T09:37:24.868Z,52.50
2018-09-30T10:08:02.000Z,52.80
2018-09-30T10:10:34.375Z,50.00
2018-09-30T10:13:09.491Z,49.50
2018-09-30T10:15:38.988Z,50.00
2018-09-30T10:18:09.141Z,49.80
2018-09-30T10:23:35.105Z,49.70
2018-09-30T10:26:13.056Z,49.10
2018-09-30T10:28:51.660Z,48.80
2018-09-30T10:31:24.278Z,48.90
2018-09-30T10:34:03.579Z,48.50
2018-09-30T10:36:32.259Z,48.90
2018-09-30T10:39:05.401Z,48.30
2018-09-30T10:41:33.813Z,48.80
2018-09-30T10:44:05.683Z,49.40
2018-09-30T10:46:40.273Z,49.00
2018-09-30T10:49:09.071Z,48.50
2018-09-30T10:51:39.709Z,47.20
2018-09-30T10:54:08.270Z,47.70
2018-09-30T10:56:40.339Z,46.40
2018-09-30T10:59:09.720Z,46.20
2018-09-30T11:01:46.764Z,47.50
2018-09-30T11:04:17.266Z,48.80
2018-09-30T11:06:45.821Z,47.80
2018-09-30T11:09:15.247Z,47.10
2018-09-30T11:11:46.236Z,46.60
2018-09-30T11:14:17.702Z,46.90
2018-09-30T11:16:47.621Z,47.40
2018-09-30T11:19:17.959Z,47.50
2018-09-30T11:21:51.780Z,47.50
2018-09-30T11:24:23.719Z,48.10
2018-09-30T11:26:51.652Z,47.40
2018-09-30T11:29:19.640Z,46.90
2018-09-30T11:31:51.382Z,47.10
2018-09-30T11:34:25.200Z,46.30
2018-09-30T11:36:55.761Z,46.40
2018-09-30T11:39:24.345Z,46.40
2018-09-30T11:41:54.194Z,47.00
2018-09-30T11:44:25.566Z,48.30
2018-09-30T11:49:53.462Z,47.80
2018-09-30T11:52:22.623Z,47.80
2018-09-30T11:54:54.718Z,47.20
2018-09-30T11:57:23.520Z,47.10
2018-09-30T11:59:51.838Z,47.40
2018-09-30T12:02:24.239Z,48.00
2018-09-30T12:04:53.597Z,48.60
2018-09-30T12:07:24.594Z,48.50
2018-09-30T12:09:53.840Z,48.70
2018-09-30T12:12:22.275Z,48.60
2018-09-30T12:14:51.033Z,47.70
2018-09-30T12:17:21.196Z,47.70
2018-09-30T12:19:58.455Z,48.30
2018-09-30T12:22:26.601Z,47.90
2018-09-30T12:24:54.861Z,49.00
2018-09-30T12:27:25.586Z,48.50
2018-09-30T12:29:55.278Z,47.60
2018-09-30T12:32:23.526Z,48.10
2018-09-30T12:34:56.651Z,47.70
2018-09-30T12:37:25.543Z,47.50
2018-09-30T12:39:55.155Z,47.60
2018-09-30T12:42:24.023Z,48.10
2018-09-30T12:44:52.919Z,48.50
2018-09-30T12:47:25.801Z,48.40
2018-09-30T12:49:53.704Z,48.20
2018-09-30T12:52:23.131Z,48.40
2018-09-30T12:54:51.243Z,49.20
2018-09-30T12:57:21.907Z,48.20
2018-09-30T12:59:50.200Z,47.60
2018-09-30T13:02:20.652Z,47.00
2018-09-30T13:04:48.242Z,47.40
2018-09-30T13:07:16.009Z,47.90
2018-09-30T13:09:45.731Z,47.80
2018-09-30T13:12:15.073Z,46.90
2018-09-30T13:14:44.270Z,47.10
2018-09-30T13:17:13.468Z,47.50
2018-09-30T13:20:09.424Z,47.80
2018-09-30T13:22:40.122Z,48.00
2018-09-30T13:25:09.350Z,47.80
2018-09-30T13:27:37.958Z,47.80
2018-09-30T13:30:09.395Z,48.20
2018-09-30T13:32:38.542Z,48.20
2018-09-30T13:35:12.353Z,47.90
2018-09-30T13:37:41.439Z,48.30
2018-09-30T13:40:15.724Z,47.90
2018-09-30T13:42:48.591Z,46.80
2018-09-30T13:45:23.481Z,47.60
2018-09-30T13:47:56.596Z,46.60
2018-09-30T13:50:25.397Z,47.50
2018-09-30T13:52:59.179Z,47.30
2018-09-30T13:55:28.498Z,46.50
2018-09-30T13:58:04.385Z,46.80
2018-09-30T14:00:43.669Z,45.60
2018-09-30T14:03:12.692Z,44.80
2018-09-30T14:05:43.424Z,44.80
2018-09-30T14:08:11.250Z,44.50
2018-09-30T14:10:39.969Z,45.60
2018-09-30T14:13:18.221Z,46.10
2018-09-30T14:15:47.152Z,46.50
2018-09-30T14:18:17.117Z,46.70
2018-09-30T14:20:55.129Z,46.30
2018-09-30T14:23:24.292Z,44.90
2018-09-30T14:26:00.174Z,44.70
2018-09-30T14:28:33.188Z,44.90
2018-09-30T14:31:03.431Z,46.00
2018-09-30T14:33:35.095Z,46.20
2018-09-30T14:36:04.754Z,46.60
2018-09-30T14:38:35.304Z,46.20
2018-09-30T14:41:04.032Z,46.60
2018-09-30T14:43:37.932Z,46.00
2018-09-30T14:46:06.909Z,45.90
2018-09-30T14:48:35.138Z,46.20
2018-09-30T14:51:02.739Z,45.40
2018-09-30T14:53:32.067Z,44.70
2018-09-30T14:56:00.759Z,44.00
2018-09-30T14:58:32.922Z,43.60
2018-09-30T15:01:02.738Z,44.20
2018-09-30T15:03:32.887Z,45.30
2018-09-30T15:06:08.367Z,45.30
2018-09-30T15:08:39.904Z,46.10
2018-09-30T15:11:13.282Z,46.10
2018-09-30T15:13:44.896Z,46.60
2018-09-30T15:16:18.184Z,45.60
2018-09-30T15:18:48.335Z,46.20
2018-09-30T15:21:18.358Z,46.70
2018-09-30T15:23:50.956Z,46.20
2018-09-30T15:26:20.345Z,45.80
2018-09-30T15:28:52.475Z,45.30
2018-09-30T15:31:30.996Z,45.80
2018-09-30T15:34:06.719Z,44.90
2018-09-30T15:36:36.509Z,44.50
2018-09-30T15:39:07.980Z,44.30
2018-09-30T15:41:39.572Z,44.40
2018-09-30T15:44:14.723Z,44.10
2018-09-30T15:46:44.568Z,44.90
2018-09-30T15:49:15.030Z,44.60
2018-09-30T15:54:41.270Z,44.90
2018-09-30T15:57:11.312Z,44.60
2018-09-30T15:59:43.931Z,44.90
2018-09-30T16:02:13.744Z,45.00
2018-09-30T16:04:42.303Z,44.80
2018-09-30T16:07:11.395Z,44.90
2018-09-30T16:09:48.387Z,44.80
2018-09-30T16:12:32.661Z,45.00
2018-09-30T16:15:12.417Z,45.80
2018-09-30T16:17:43.179Z,47.50
2018-09-30T16:20:18.511Z,47.80
2018-09-30T16:22:47.983Z,47.80
2018-09-30T16:27:50.539Z,48.10
2018-09-30T16:30:26.667Z,48.40
2018-09-30T16:33:01.284Z,49.00
2018-09-30T16:35:30.505Z,49.80
2018-09-30T16:37:59.308Z,49.90
2018-09-30T16:40:30.747Z,50.60
2018-09-30T16:43:00.602Z,51.00
2018-09-30T16:45:33.549Z,51.10
2018-09-30T16:48:03.192Z,51.50
2018-09-30T16:50:34.017Z,52.20
2018-09-30T16:53:06.305Z,52.10
2018-09-30T16:55:38.487Z,53.00
2018-09-30T16:58:13.195Z,53.10
2018-09-30T17:00:43.515Z,53.70
2018-09-30T17:03:13.725Z,54.20
2018-09-30T17:05:42.945Z,54.90
2018-09-30T17:08:17.898Z,55.50
2018-09-30T17:10:46.133Z,55.90
2018-09-30T17:13:17.182Z,56.50
2018-09-30T17:15:47.379Z,57.00
2018-09-30T17:18:32.733Z,57.10
2018-09-30T17:21:04.040Z,57.20
2018-09-30T17:24:18.351Z,57.70
2018-09-30T17:26:48.850Z,58.00
2018-09-30T17:29:32.435Z,58.70
2018-09-30T17:32:01.568Z,58.80
2018-09-30T17:34:35.859Z,58.80
2018-09-30T17:37:04.639Z,58.40
2018-09-30T17:39:34.392Z,58.20
2018-09-30T17:42:12.118Z,58.60
2018-09-30T17:44:51.298Z,58.80
2018-09-30T17:47:59.332Z,58.80
2018-09-30T18:14:58.762Z,61.90
2018-09-30T18:17:38.523Z,62.10
2018-09-30T18:20:07.150Z,61.60
2018-09-30T18:22:46.348Z,61.60
2018-09-30T18:25:20.733Z,61.50
2018-09-30T18:27:53.474Z,61.90
2018-09-30T18:30:23.978Z,62.20
2018-09-30T18:32:52.505Z,61.90
2018-09-30T18:35:22.806Z,61.90
2018-09-30T18:37:57.048Z,62.00
2018-09-30T18:40:25.424Z,61.90
2018-09-30T18:43:00.633Z,62.10
2018-09-30T18:45:33.292Z,61.80
2018-09-30T18:48:02.920Z,61.90
2018-09-30T18:50:33.495Z,62.40
2018-09-30T18:53:02.013Z,62.40
2018-09-30T18:55:35.566Z,62.60
2018-09-30T18:58:06.063Z,62.90
2018-09-30T19:00:41.241Z,62.90
2018-09-30T19:03:14.694Z,63.00
2018-09-30T19:05:43.458Z,63.00
2018-09-30T19:08:16.169Z,63.70
2018-09-30T19:10:46.743Z,63.50
2018-09-30T19:13:15.862Z,63.70
2018-09-30T19:15:46.496Z,63.80
2018-09-30T19:18:22.274Z,64.00
2018-09-30T19:21:02.965Z,64.10
2018-09-30T19:23:32.699Z,64.40
2018-09-30T19:26:11.248Z,64.70
2018-09-30T19:28:39.355Z,64.50
2018-09-30T19:31:08.835Z,64.50
2018-09-30T19:33:37.747Z,64.40
2018-09-30T19:36:16.056Z,64.30
2018-09-30T19:38:46.714Z,64.40
2018-09-30T19:41:22.799Z,64.80
2018-09-30T19:43:53.851Z,64.60
2018-09-30T19:46:21.633Z,64.70
2018-09-30T19:48:49.360Z,64.80
2018-09-30T19:51:17.139Z,64.60
2018-09-30T19:53:45.036Z,64.80
2018-09-30T19:56:12.839Z,64.30
2018-09-30T19:58:40.578Z,63.80
2018-09-30T20:01:08.324Z,63.50
2018-09-30T20:03:36.174Z,63.50
2018-09-30T20:06:03.833Z,63.50
2018-09-30T20:08:31.510Z,63.30
2018-09-30T20:10:59.191Z,63.50
2018-09-30T20:13:26.719Z,63.00
2018-09-30T20:15:54.405Z,62.90
2018-09-30T20:18:21.968Z,63.00
2018-09-30T20:20:49.532Z,63.00
2018-09-30T20:23:16.938Z,62.90
2018-09-30T20:25:44.486Z,62.70
2018-09-30T20:28:11.970Z,62.40
2018-09-30T20:30:39.520Z,62.20
2018-09-30T20:33:07.012Z,62.20
2018-09-30T20:35:34.593Z,62.10
2018-09-30T20:38:02.476Z,61.10
2018-09-30T20:40:31.492Z,60.90
2018-09-30T20:42:59.415Z,60.30
2018-09-30T20:45:27.387Z,59.90
2018-09-30T20:47:55.120Z,59.00
2018-09-30T20:50:22.840Z,57.80
2018-09-30T20:52:50.790Z,58.20
2018-09-30T20:55:18.683Z,57.50
2018-09-30T20:57:46.700Z,56.60
2018-09-30T21:00:14.567Z,56.10
2018-09-30T21:02:42.346Z,55.50
2018-09-30T21:05:24.512Z,55.30
2018-09-30T21:07:52.362Z,54.90
2018-09-30T21:10:20.110Z,54.20
2018-09-30T21:12:47.872Z,54.60
2018-09-30T21:15:15.436Z,54.70
2018-09-30T21:17:43.131Z,54.10
2018-09-30T21:20:10.722Z,54.40
2018-09-30T21:22:38.589Z,55.00
2018-09-30T21:25:08.228Z,54.80
2018-09-30T21:27:35.988Z,54.60
2018-09-30T21:30:04.624Z,55.10
2018-09-30T21:32:32.115Z,55.10
2018-09-30T21:34:59.854Z,54.90
2018-09-30T21:37:27.394Z,54.60
2018-09-30T21:39:55.304Z,54.80
2018-09-30T21:42:22.929Z,55.60
2018-09-30T21:44:50.424Z,55.60
2018-09-30T21:47:19.491Z,56.10
2018-09-30T21:49:47.120Z,56.60
2018-09-30T21:52:15.055Z,56.60
2018-09-30T21:54:43.188Z,57.00
2018-09-30T21:57:10.812Z,56.80
2018-09-30T21:59:38.395Z,57.70
2018-09-30T22:02:05.922Z,58.50
2018-09-30T22:04:33.430Z,59.30
2018-09-30T22:07:00.975Z,60.30
2018-09-30T22:09:28.610Z,60.90
2018-09-30T22:11:56.196Z,61.30
2018-09-30T22:14:23.942Z,61.60
2018-09-30T22:16:51.514Z,62.20
2018-09-30T22:19:18.997Z,62.50
2018-09-30T22:21:46.850Z,62.80
2018-09-30T22:24:14.391Z,63.20
2018-09-30T22:26:41.865Z,63.80
2018-09-30T22:29:09.417Z,64.30
2018-09-30T22:31:36.900Z,63.90
2018-09-30T22:34:04.572Z,64.40
2018-09-30T22:36:32.090Z,64.30
2018-09-30T22:38:59.580Z,64.00
2018-09-30T22:41:27.109Z,64.30
2018-09-30T22:44:07.026Z,64.50
2018-09-30T22:46:34.615Z,64.40
2018-09-30T22:49:02.421Z,64.20
2018-09-30T22:51:30.878Z,64.10
2018-09-30T22:53:58.911Z,63.60
2018-09-30T22:56:27.208Z,63.40
2018-09-30T22:58:55.749Z,63.80
2018-09-30T23:01:23.255Z,64.20
2018-09-30T23:03:51.454Z,64.10
2018-09-30T23:06:20.202Z,64.20
2018-09-30T23:08:47.922Z,64.50
2018-09-30T23:11:16.186Z,64.40
2018-09-30T23:13:43.720Z,65.00
2018-09-30T23:16:11.252Z,64.80
2018-09-30T23:18:39.173Z,64.70
2018-09-30T23:21:06.678Z,64.80
2018-09-30T23:23:34.634Z,64.80
2018-09-30T23:26:02.217Z,65.00
2018-09-30T23:28:29.727Z,64.80
2018-09-30T23:30:57.262Z,64.90
2018-09-30T23:33:24.805Z,64.80
2018-09-30T23:35:53.011Z,64.80
2018-09-30T23:38:20.517Z,64.50
2018-09-30T23:40:47.994Z,64.80
2018-09-30T23:43:15.571Z,64.80
2018-09-30T23:45:43.319Z,64.80
2018-09-30T23:48:11.387Z,64.80
2018-09-30T23:50:39.020Z,64.90
2018-09-30T23:53:06.575Z,64.80
2018-09-30T23:55:34.047Z,64.70
2018-09-30T23:58:12.568Z,65.00
